createdAt,value
2019-02-21T00:00:23.886Z,101868.75
2019-02-21T00:02:45.190Z,101864.84
2019-02-21T00:05:14.799Z,101867.31
2019-02-21T00:07:44.332Z,101864.34
2019-02-21T00:10:13.759Z,101869.52
2019-02-21T00:12:43.570Z,101873.60
2019-02-21T00:15:13.191Z,101868.63
2019-02-21T00:17:42.865Z,101879.05
2019-02-21T00:20:12.514Z,101877.38
2019-02-21T00:22:42.042Z,101883.05
2019-02-21T00:25:14.423Z,101883.95
2019-02-21T00:27:43.847Z,101882.83
2019-02-21T00:30:13.421Z,101885.25
2019-02-21T00:32:43.270Z,101886.61
2019-02-21T00:35:12.953Z,101882.83
2019-02-21T00:37:42.583Z,101878.78
2019-02-21T00:40:12.343Z,101876.67
2019-02-21T00:42:42.193Z,101882.47
2019-02-21T00:45:11.902Z,101875.59
2019-02-21T00:47:41.733Z,101882.56
2019-02-21T00:50:11.393Z,101874.39
2019-02-21T00:52:41.256Z,101872.62
2019-02-21T00:55:10.894Z,101877.84
2019-02-21T00:57:40.650Z,101879.29
2019-02-21T01:00:13.643Z,101872.01
2019-02-21T01:02:46.328Z,101864.64
2019-02-21T01:05:16.330Z,101866.07
2019-02-21T01:07:46.173Z,101863.87
2019-02-21T01:10:15.864Z,101867.42
2019-02-21T01:12:45.474Z,101859.20
2019-02-21T01:15:14.943Z,101858.30
2019-02-21T01:17:44.617Z,101854.07
2019-02-21T01:20:14.123Z,101859.64
2019-02-21T01:22:43.665Z,101856.63
2019-02-21T01:25:13.428Z,101853.98
2019-02-21T01:27:43.130Z,101857.58
2019-02-21T01:30:12.778Z,101854.07
2019-02-21T01:32:42.285Z,101849.80
2019-02-21T01:35:11.788Z,101856.27
2019-02-21T01:37:41.288Z,101853.26
2019-02-21T01:40:10.859Z,101845.44
2019-02-21T01:42:40.388Z,101849.75
2019-02-21T01:45:10.072Z,101856.18
2019-02-21T01:47:39.544Z,101847.33
2019-02-21T01:50:09.378Z,101846.25
2019-02-21T01:52:38.825Z,101851.42
2019-02-21T01:55:09.853Z,101846.20
2019-02-21T01:57:39.422Z,101848.41
2019-02-21T02:00:11.605Z,101839.73
2019-02-21T02:02:41.251Z,101842.47
2019-02-21T02:05:10.932Z,101839.73
2019-02-21T02:07:40.649Z,101837.70
2019-02-21T02:10:10.254Z,101839.86
2019-02-21T02:12:39.829Z,101836.89
2019-02-21T02:15:10.090Z,101831.72
2019-02-21T02:17:39.496Z,101832.62
2019-02-21T02:20:09.215Z,101833.55
2019-02-21T02:22:38.629Z,101833.65
2019-02-21T02:25:08.299Z,101834.50
2019-02-21T02:27:37.918Z,101830.17
2019-02-21T02:30:08.658Z,101830.09
2019-02-21T02:32:38.466Z,101833.77
2019-02-21T02:35:07.980Z,101834.59
2019-02-21T02:37:37.441Z,101838.22
2019-02-21T02:40:07.457Z,101832.73
2019-02-21T02:42:37.023Z,101831.55
2019-02-21T02:45:07.245Z,101837.63
2019-02-21T02:47:36.691Z,101833.80
2019-02-21T02:50:07.904Z,101837.70
2019-02-21T02:52:37.495Z,101830.74
2019-02-21T02:55:07.215Z,101828.62
2019-02-21T02:57:36.795Z,101825.64
2019-02-21T03:00:09.643Z,101830.45
2019-02-21T03:02:39.208Z,101830.09
2019-02-21T03:05:08.891Z,101833.56
2019-02-21T03:07:39.014Z,101836.66
2019-02-21T03:10:11.247Z,101836.30
2019-02-21T03:12:40.657Z,101834.45
2019-02-21T03:15:10.191Z,101832.05
2019-02-21T03:17:40.110Z,101827.73
2019-02-21T03:20:10.271Z,101826.52
2019-02-21T03:22:39.836Z,101823.54
2019-02-21T03:25:09.539Z,101826.96
2019-02-21T03:27:39.529Z,101827.00
2019-02-21T03:30:12.387Z,101832.22
2019-02-21T03:32:41.743Z,101830.06
2019-02-21T03:35:11.285Z,101837.08
2019-02-21T03:37:41.185Z,101830.59
2019-02-21T03:40:11.015Z,101824.56
2019-02-21T03:42:40.541Z,101828.52
2019-02-21T03:45:16.027Z,101824.11
2019-02-21T03:47:45.582Z,101827.21
2019-02-21T03:50:15.045Z,101823.79
2019-02-21T03:52:44.503Z,101826.89
2019-02-21T03:55:14.420Z,101821.26
2019-02-21T03:57:43.980Z,101820.92
2019-02-21T04:00:13.737Z,101810.98
2019-02-21T04:02:43.361Z,101809.38
2019-02-21T04:05:13.013Z,101803.80
2019-02-21T04:07:42.452Z,101804.73
2019-02-21T04:10:12.243Z,101799.03
2019-02-21T04:12:41.809Z,101801.67
2019-02-21T04:15:13.008Z,101793.92
2019-02-21T04:17:42.589Z,101796.09
2019-02-21T04:20:12.903Z,101796.61
2019-02-21T04:22:42.615Z,101791.39
2019-02-21T04:25:12.338Z,101791.02
2019-02-21T04:27:41.846Z,101790.69
2019-02-21T04:30:11.461Z,101791.14
2019-02-21T04:32:40.940Z,101785.59
2019-02-21T04:35:10.461Z,101785.55
2019-02-21T04:37:39.990Z,101779.77
2019-02-21T04:40:09.923Z,101778.70
2019-02-21T04:42:39.363Z,101774.59
2019-02-21T04:45:08.820Z,101786.87
2019-02-21T04:47:38.275Z,101775.08
2019-02-21T04:50:08.380Z,101781.80
2019-02-21T04:52:37.868Z,101773.13
2019-02-21T04:55:07.419Z,101780.98
2019-02-21T04:57:37.018Z,101778.83
2019-02-21T05:00:09.754Z,101780.13
2019-02-21T05:02:39.199Z,101776.66
2019-02-21T05:05:08.754Z,101777.15
2019-02-21T05:07:38.407Z,101778.95
2019-02-21T05:10:08.044Z,101772.42
2019-02-21T05:12:38.034Z,101762.46
2019-02-21T05:15:07.646Z,101766.78
2019-02-21T05:17:37.367Z,101761.31
2019-02-21T05:20:07.227Z,101764.78
2019-02-21T05:22:37.132Z,101764.73
2019-02-21T05:25:06.535Z,101762.05
2019-02-21T05:27:36.943Z,101764.17
2019-02-21T05:30:10.310Z,101762.05
2019-02-21T05:32:41.486Z,101765.85
2019-02-21T05:35:15.236Z,101765.40
2019-02-21T05:37:46.431Z,101771.41
2019-02-21T05:40:35.816Z,101764.84
2019-02-21T05:43:22.451Z,101766.52
2019-02-21T05:45:59.791Z,101767.38
2019-02-21T05:48:30.888Z,101766.52
2019-02-21T05:51:02.141Z,101763.94
2019-02-21T05:53:33.353Z,101765.25
2019-02-21T05:56:04.446Z,101763.05
2019-02-21T05:58:35.641Z,101759.50
2019-02-21T06:01:06.981Z,101769.58
2019-02-21T06:03:44.078Z,101768.64
2019-02-21T06:06:33.780Z,101765.09
2019-02-21T06:09:07.746Z,101770.35
2019-02-21T06:11:41.465Z,101769.37
2019-02-21T06:14:30.620Z,101762.44
2019-02-21T06:17:04.433Z,101769.01
2019-02-21T06:19:35.514Z,101770.31
2019-02-21T06:22:15.690Z,101773.21
2019-02-21T06:24:49.465Z,101773.66
2019-02-21T06:27:20.684Z,101774.59
2019-02-21T06:30:07.193Z,101771.53
2019-02-21T06:32:36.666Z,101772.52
2019-02-21T06:35:08.374Z,101776.84
2019-02-21T06:37:38.028Z,101775.53
2019-02-21T06:40:07.889Z,101777.32
2019-02-21T06:42:37.551Z,101767.25
2019-02-21T06:45:07.062Z,101763.34
2019-02-21T06:47:36.523Z,101767.74
2019-02-21T06:50:06.427Z,101769.13
2019-02-21T06:52:35.895Z,101767.33
2019-02-21T06:55:05.710Z,101766.03
2019-02-21T06:57:35.627Z,101775.16
2019-02-21T07:00:06.072Z,101779.08
2019-02-21T07:02:35.798Z,101773.41
2019-02-21T07:05:06.501Z,101779.08
2019-02-21T07:07:36.143Z,101778.52
2019-02-21T07:10:07.206Z,101772.92
2019-02-21T07:12:36.831Z,101774.23
2019-02-21T07:15:09.111Z,101778.14
2019-02-21T07:17:48.493Z,101777.62
2019-02-21T07:20:09.907Z,101772.92
2019-02-21T07:22:39.501Z,101771.98
2019-02-21T07:25:14.141Z,101773.78
2019-02-21T07:27:43.748Z,101771.91
2019-02-21T07:30:20.235Z,101771.98
2019-02-21T07:32:44.694Z,101769.13
2019-02-21T07:35:14.191Z,101770.23
2019-02-21T07:37:43.789Z,101771.20
2019-02-21T07:40:20.158Z,101768.56
2019-02-21T07:42:45.162Z,101766.03
2019-02-21T07:45:14.888Z,101766.88
2019-02-21T07:47:44.513Z,101769.49
2019-02-21T07:50:14.218Z,101770.51
2019-02-21T07:52:43.811Z,101775.69
2019-02-21T07:55:13.354Z,101774.05
2019-02-21T07:57:42.862Z,101772.01
2019-02-21T08:00:13.423Z,101772.86
2019-02-21T08:02:42.899Z,101775.40
2019-02-21T08:05:12.502Z,101768.58
2019-02-21T08:07:42.268Z,101768.95
2019-02-21T08:10:12.424Z,101765.22
2019-02-21T08:12:41.973Z,101767.39
2019-02-21T08:15:12.956Z,101766.09
2019-02-21T08:17:42.415Z,101760.83
2019-02-21T08:20:12.709Z,101764.00
2019-02-21T08:22:42.218Z,101760.19
2019-02-21T08:25:11.591Z,101763.25
2019-02-21T08:27:42.575Z,101769.78
2019-02-21T08:30:14.378Z,101761.16
2019-02-21T08:33:00.410Z,101768.59
2019-02-21T08:35:30.794Z,101760.38
2019-02-21T08:38:00.353Z,101761.31
2019-02-21T08:40:29.887Z,101760.50
2019-02-21T08:42:59.746Z,101760.94
2019-02-21T08:45:29.233Z,101761.02
2019-02-21T08:47:58.856Z,101753.19
2019-02-21T08:50:28.289Z,101752.44
2019-02-21T08:52:57.783Z,101752.81
2019-02-21T08:55:27.267Z,101761.88
2019-02-21T08:57:56.917Z,101757.84
2019-02-21T09:00:26.419Z,101756.17
2019-02-21T09:02:55.991Z,101757.95
2019-02-21T09:05:25.480Z,101751.98
2019-02-21T09:07:55.235Z,101753.70
2019-02-21T09:10:27.447Z,101751.98
2019-02-21T09:12:56.361Z,101754.23
2019-02-21T09:15:25.772Z,101749.48
2019-02-21T09:17:55.888Z,101748.70
2019-02-21T09:20:25.296Z,101744.89
2019-02-21T09:22:54.895Z,101747.02
2019-02-21T09:25:24.338Z,101736.20
2019-02-21T09:27:53.774Z,101738.36
2019-02-21T09:30:23.281Z,101735.41
2019-02-21T09:32:52.828Z,101738.44
2019-02-21T09:35:22.532Z,101738.99
2019-02-21T09:37:51.955Z,101733.77
2019-02-21T09:40:21.894Z,101733.73
2019-02-21T09:42:51.325Z,101732.05
2019-02-21T09:45:21.166Z,101731.19
2019-02-21T09:47:50.611Z,101738.13
2019-02-21T09:50:20.221Z,101738.95
2019-02-21T09:52:49.795Z,101742.43
2019-02-21T09:55:19.417Z,101735.45
2019-02-21T09:57:48.996Z,101737.31
2019-02-21T10:00:22.495Z,101731.71
2019-02-21T10:02:55.805Z,101733.09
2019-02-21T10:05:23.571Z,101731.03
2019-02-21T10:07:53.290Z,101733.20
2019-02-21T10:10:23.252Z,101726.25
2019-02-21T10:12:52.676Z,101724.59
2019-02-21T10:15:22.425Z,101719.92
2019-02-21T10:17:52.156Z,101723.53
2019-02-21T10:20:24.424Z,101716.59
2019-02-21T10:22:56.051Z,101710.47
2019-02-21T10:25:27.811Z,101712.60
2019-02-21T10:27:58.996Z,101718.20
2019-02-21T10:30:28.400Z,101713.42
2019-02-21T10:32:57.898Z,101711.23
2019-02-21T10:35:27.582Z,101705.52
2019-02-21T10:37:57.385Z,101699.30
2019-02-21T10:40:29.217Z,101705.00
2019-02-21T10:42:58.634Z,101691.28
2019-02-21T10:45:28.165Z,101696.64
2019-02-21T10:47:57.653Z,101696.23
2019-02-21T10:50:27.194Z,101691.00
2019-02-21T10:52:58.085Z,101694.55
2019-02-21T10:55:27.532Z,101688.53
2019-02-21T10:57:57.222Z,101690.28
2019-02-21T11:00:30.687Z,101683.75
2019-02-21T11:03:00.241Z,101681.89
2019-02-21T11:05:30.201Z,101680.21
2019-02-21T11:07:59.757Z,101674.26
2019-02-21T11:10:30.575Z,101671.12
2019-02-21T11:13:00.608Z,101670.98
2019-02-21T11:15:30.303Z,101672.14
2019-02-21T11:17:59.846Z,101665.33
2019-02-21T11:20:29.609Z,101663.92
2019-02-21T11:23:00.831Z,101663.03
2019-02-21T11:25:30.891Z,101660.52
2019-02-21T11:28:00.300Z,101664.02
2019-02-21T11:30:29.772Z,101658.31
2019-02-21T11:32:59.503Z,101662.17
2019-02-21T11:35:29.030Z,101661.59
2019-02-21T11:37:58.532Z,101659.42
2019-02-21T11:40:27.974Z,101651.58
2019-02-21T11:42:57.843Z,101645.97
2019-02-21T11:45:27.305Z,101643.70
2019-02-21T11:47:57.058Z,101643.55
2019-02-21T11:50:26.500Z,101641.31
2019-02-21T11:52:55.897Z,101640.17
2019-02-21T11:55:27.202Z,101639.34
2019-02-21T11:57:56.665Z,101645.72
2019-02-21T12:00:30.624Z,101641.25
2019-02-21T12:03:00.036Z,101634.63
2019-02-21T12:05:31.532Z,101638.09
2019-02-21T12:08:00.706Z,101642.68
2019-02-21T12:10:30.118Z,101637.14
2019-02-21T12:12:59.928Z,101635.48
2019-02-21T12:15:29.394Z,101635.77
2019-02-21T12:17:58.850Z,101637.49
2019-02-21T12:20:28.443Z,101629.68
2019-02-21T12:22:57.847Z,101632.70
2019-02-21T12:25:27.317Z,101630.16
2019-02-21T12:27:56.767Z,101626.42
2019-02-21T12:30:26.397Z,101623.39
2019-02-21T12:32:55.831Z,101629.48
2019-02-21T12:35:29.668Z,101618.16
2019-02-21T12:37:57.406Z,101622.98
2019-02-21T12:40:26.866Z,101618.64
2019-02-21T12:42:56.341Z,101616.71
2019-02-21T12:45:29.848Z,101622.87
2019-02-21T12:47:58.311Z,101619.57
2019-02-21T12:50:27.719Z,101624.14
2019-02-21T12:52:57.382Z,101618.65
2019-02-21T12:55:31.485Z,101622.06
2019-02-21T12:57:58.211Z,101625.45
2019-02-21T13:00:27.871Z,101623.28
2019-02-21T13:02:57.323Z,101624.82
2019-02-21T13:05:26.848Z,101624.91
2019-02-21T13:07:57.490Z,101624.50
2019-02-21T13:10:27.061Z,101625.42
2019-02-21T13:12:56.505Z,101626.79
2019-02-21T13:15:25.937Z,101629.02
2019-02-21T13:17:55.377Z,101631.13
2019-02-21T13:20:24.948Z,101624.20
2019-02-21T13:22:54.588Z,101622.89
2019-02-21T13:25:24.047Z,101625.09
2019-02-21T13:27:53.458Z,101624.73
2019-02-21T13:30:22.898Z,101625.57
2019-02-21T13:32:52.607Z,101629.02
2019-02-21T13:35:22.036Z,101627.71
2019-02-21T13:37:51.623Z,101623.34
2019-02-21T13:40:21.532Z,101623.87
2019-02-21T13:42:51.179Z,101623.41
2019-02-21T13:45:20.596Z,101623.94
2019-02-21T13:47:50.137Z,101619.51
2019-02-21T13:50:20.703Z,101620.91
2019-02-21T13:52:51.275Z,101613.56
2019-02-21T13:55:20.831Z,101618.41
2019-02-21T13:57:50.262Z,101614.42
2019-02-21T14:00:21.456Z,101610.03
2019-02-21T14:02:51.576Z,101615.26
2019-02-21T14:05:21.113Z,101613.50
2019-02-21T14:07:50.555Z,101610.05
2019-02-21T14:10:20.121Z,101613.56
2019-02-21T14:12:49.603Z,101606.25
2019-02-21T14:15:27.929Z,101613.18
2019-02-21T14:17:57.532Z,101612.28
2019-02-21T14:20:26.920Z,101618.44
2019-02-21T14:22:56.389Z,101601.99
2019-02-21T14:25:28.183Z,101605.95
2019-02-21T14:27:57.072Z,101603.86
2019-02-21T14:30:26.547Z,101603.44
2019-02-21T14:32:56.053Z,101604.22
2019-02-21T14:35:25.797Z,101599.37
2019-02-21T14:37:55.422Z,101604.11
2019-02-21T14:40:24.959Z,101604.02
2019-02-21T14:42:54.416Z,101606.69
2019-02-21T14:45:25.417Z,101609.79
2019-02-21T14:47:54.844Z,101606.72
2019-02-21T14:50:24.411Z,101605.39
2019-02-21T14:52:53.917Z,101601.94
2019-02-21T14:55:23.504Z,101597.62
2019-02-21T14:57:53.022Z,101600.66
2019-02-21T15:00:23.820Z,101587.99
2019-02-21T15:02:53.442Z,101591.50
2019-02-21T15:05:22.901Z,101581.06
2019-02-21T15:07:52.399Z,101583.67
2019-02-21T15:10:22.050Z,101579.31
2019-02-21T15:12:51.648Z,101582.76
2019-02-21T15:15:22.845Z,101579.31
2019-02-21T15:17:52.280Z,101578.86
2019-02-21T15:20:22.017Z,101587.16
2019-02-21T15:22:53.837Z,101586.69
2019-02-21T15:25:23.080Z,101592.39
2019-02-21T15:27:52.518Z,101590.58
2019-02-21T15:30:23.788Z,101587.55
2019-02-21T15:32:53.249Z,101583.63
2019-02-21T15:35:23.063Z,101587.10
2019-02-21T15:37:52.642Z,101591.39
2019-02-21T15:40:22.115Z,101594.50
2019-02-21T15:42:52.749Z,101586.18
2019-02-21T15:45:28.673Z,101588.80
2019-02-21T15:47:58.086Z,101586.69
2019-02-21T15:50:27.542Z,101588.80
2019-02-21T15:52:57.635Z,101587.96
2019-02-21T15:55:27.190Z,101592.69
2019-02-21T15:58:03.756Z,101587.94
2019-02-21T16:00:27.941Z,101580.92
2019-02-21T16:02:57.450Z,101578.69
2019-02-21T16:05:27.158Z,101578.69
2019-02-21T16:07:56.663Z,101581.31
2019-02-21T16:10:27.714Z,101581.81
2019-02-21T16:12:57.689Z,101581.34
2019-02-21T16:15:27.623Z,101581.78
2019-02-21T16:17:57.077Z,101585.65
2019-02-21T16:20:26.727Z,101585.23
2019-02-21T16:22:56.378Z,101584.41
2019-02-21T16:25:31.602Z,101581.39
2019-02-21T16:28:01.109Z,101584.34
2019-02-21T16:30:30.837Z,101585.23
2019-02-21T16:33:00.493Z,101574.27
2019-02-21T16:35:30.022Z,101572.16
2019-02-21T16:37:59.504Z,101576.48
2019-02-21T16:40:29.195Z,101572.54
2019-02-21T16:42:58.650Z,101573.44
2019-02-21T16:45:42.148Z,101574.77
2019-02-21T16:47:59.612Z,101579.11
2019-02-21T16:50:30.249Z,101586.95
2019-02-21T16:53:00.053Z,101586.92
2019-02-21T16:55:29.506Z,101589.95
2019-02-21T16:57:59.105Z,101583.51
2019-02-21T17:00:38.888Z,101585.71
2019-02-21T17:02:59.982Z,101590.46
2019-02-21T17:05:29.448Z,101584.79
2019-02-21T17:07:59.033Z,101585.23
2019-02-21T17:10:28.748Z,101587.84
2019-02-21T17:12:58.678Z,101589.16
2019-02-21T17:15:28.398Z,101580.86
2019-02-21T17:17:57.880Z,101581.31
2019-02-21T17:20:27.644Z,101584.34
2019-02-21T17:22:57.139Z,101589.63
2019-02-21T17:25:26.612Z,101590.49
2019-02-21T17:27:56.074Z,101584.41
2019-02-21T17:30:25.717Z,101586.16
2019-02-21T17:32:55.146Z,101584.88
2019-02-21T17:35:24.758Z,101592.72
2019-02-21T17:37:54.237Z,101580.09
2019-02-21T17:40:24.946Z,101580.12
2019-02-21T17:42:54.413Z,101584.02
2019-02-21T17:45:24.103Z,101579.22
2019-02-21T17:47:53.663Z,101580.09
2019-02-21T17:50:23.182Z,101579.20
2019-02-21T17:52:52.804Z,101580.53
2019-02-21T17:55:22.375Z,101575.69
2019-02-21T17:57:52.024Z,101572.69
2019-02-21T18:00:27.133Z,101571.88
2019-02-21T18:02:56.740Z,101570.59
2019-02-21T18:05:26.478Z,101571.46
2019-02-21T18:07:56.120Z,101563.16
2019-02-21T18:10:25.583Z,101559.23
2019-02-21T18:12:54.986Z,101566.67
2019-02-21T18:15:24.627Z,101564.03
2019-02-21T18:17:54.311Z,101565.78
2019-02-21T18:20:23.841Z,101571.08
2019-02-21T18:22:53.365Z,101571.08
2019-02-21T18:25:41.200Z,101565.89
2019-02-21T18:28:10.764Z,101570.23
2019-02-21T18:30:42.165Z,101563.66
2019-02-21T18:33:11.800Z,101574.16
2019-02-21T18:35:41.381Z,101572.44
2019-02-21T18:38:11.209Z,101568.13
2019-02-21T18:40:40.776Z,101571.16
2019-02-21T18:43:10.382Z,101563.30
2019-02-21T18:45:40.096Z,101570.32
2019-02-21T18:48:09.786Z,101569.45
2019-02-21T18:50:39.495Z,101569.02
2019-02-21T18:53:08.933Z,101569.02
2019-02-21T18:55:38.605Z,101578.20
2019-02-21T18:58:08.024Z,101574.75
2019-02-21T19:00:37.645Z,101578.61
2019-02-21T19:03:07.327Z,101577.39
2019-02-21T19:05:36.766Z,101576.08
2019-02-21T19:08:06.314Z,101573.08
2019-02-21T19:10:35.888Z,101575.28
2019-02-21T19:13:07.577Z,101579.62
2019-02-21T19:15:37.121Z,101581.04
2019-02-21T19:18:06.561Z,101582.28
2019-02-21T19:20:36.100Z,101584.44
2019-02-21T19:23:05.534Z,101580.90
2019-02-21T19:25:35.277Z,101583.96
2019-02-21T19:28:05.045Z,101583.96
2019-02-21T19:30:38.056Z,101588.27
2019-02-21T19:33:07.967Z,101595.63
2019-02-21T19:35:37.405Z,101602.61
2019-02-21T19:38:10.708Z,101606.92
2019-02-21T19:40:40.538Z,101605.63
2019-02-21T19:43:10.234Z,101612.45
2019-02-21T19:45:39.701Z,101612.02
2019-02-21T19:48:09.222Z,101620.64
2019-02-21T19:50:39.117Z,101619.19
2019-02-21T19:53:08.876Z,101626.05
2019-02-21T19:55:39.091Z,101628.72
2019-02-21T19:58:08.548Z,101630.86
2019-02-21T20:00:38.049Z,101635.65
2019-02-21T20:03:07.622Z,101632.97
2019-02-21T20:05:37.061Z,101648.58
2019-02-21T20:08:08.915Z,101654.89
2019-02-21T20:10:39.016Z,101650.69
2019-02-21T20:13:10.033Z,101658.69
2019-02-21T20:15:39.676Z,101668.34
2019-02-21T20:18:09.178Z,101667.66
2019-02-21T20:20:38.800Z,101680.54
2019-02-21T20:23:08.321Z,101683.45
2019-02-21T20:25:37.942Z,101690.33
2019-02-21T20:28:07.738Z,101694.39
2019-02-21T20:30:37.413Z,101690.44
2019-02-21T20:33:07.164Z,101701.15
2019-02-21T20:35:37.036Z,101701.15
2019-02-21T20:38:06.734Z,101702.27
2019-02-21T20:40:36.595Z,101711.21
2019-02-21T20:43:06.100Z,101714.00
2019-02-21T20:45:35.897Z,101713.55
2019-02-21T20:48:05.784Z,101718.66
2019-02-21T20:50:36.066Z,101722.91
2019-02-21T20:53:05.522Z,101729.09
2019-02-21T20:55:43.455Z,101734.66
2019-02-21T20:58:06.713Z,101730.12
2019-02-21T21:00:36.463Z,101738.37
2019-02-21T21:03:06.102Z,101741.34
2019-02-21T21:05:37.221Z,101745.75
2019-02-21T21:08:06.699Z,101750.72
2019-02-21T21:10:36.418Z,101750.36
2019-02-21T21:13:06.172Z,101748.89
2019-02-21T21:15:35.667Z,101759.37
2019-02-21T21:18:05.123Z,101752.28
2019-02-21T21:20:34.927Z,101755.00
2019-02-21T21:23:04.435Z,101761.63
2019-02-21T21:25:34.090Z,101770.76
2019-02-21T21:28:03.659Z,101775.27
2019-02-21T21:30:33.111Z,101782.73
2019-02-21T21:33:02.653Z,101788.31
2019-02-21T21:35:32.249Z,101791.19
2019-02-21T21:38:02.285Z,101802.16
2019-02-21T21:40:35.270Z,101816.00
2019-02-21T21:43:04.943Z,101813.41
2019-02-21T21:45:34.484Z,101824.09
2019-02-21T21:48:04.032Z,101842.38
2019-02-21T21:50:33.517Z,101841.99
2019-02-21T21:53:03.285Z,101846.73
2019-02-21T21:55:34.053Z,101858.72
2019-02-21T21:58:03.509Z,101861.48
2019-02-21T22:00:33.058Z,101864.24
2019-02-21T22:03:03.073Z,101867.91
2019-02-21T22:05:32.564Z,101870.72
2019-02-21T22:08:02.059Z,101887.28
2019-02-21T22:10:31.697Z,101884.73
2019-02-21T22:13:01.428Z,101894.45
2019-02-21T22:15:31.017Z,101892.62
2019-02-21T22:18:00.883Z,101904.95
2019-02-21T22:20:30.654Z,101898.07
2019-02-21T22:23:02.075Z,101911.40
2019-02-21T22:25:32.068Z,101919.62
2019-02-21T22:28:01.863Z,101926.05
2019-02-21T22:30:31.538Z,101934.19
2019-02-21T22:33:01.499Z,101944.47
2019-02-21T22:35:31.499Z,101944.66
2019-02-21T22:38:01.262Z,101956.52
2019-02-21T22:40:30.931Z,101972.91
2019-02-21T22:43:00.911Z,101958.00
2019-02-21T22:45:30.534Z,101969.30
2019-02-21T22:48:00.183Z,101976.94
2019-02-21T22:50:29.800Z,101975.98
2019-02-21T22:52:59.613Z,101991.64
2019-02-21T22:55:29.353Z,102002.31
2019-02-21T22:57:59.380Z,102004.30
2019-02-21T23:00:36.681Z,102010.73
2019-02-21T23:03:09.026Z,102014.68
2019-02-21T23:06:10.616Z,102030.83
2019-02-21T23:08:43.859Z,102040.77
2019-02-21T23:11:13.769Z,102043.73
2019-02-21T23:13:43.506Z,102046.73
2019-02-21T23:16:13.352Z,102055.99
2019-02-21T23:18:43.150Z,102062.23
2019-02-21T23:21:12.944Z,102070.02
2019-02-21T23:23:42.768Z,102079.63
2019-02-21T23:26:12.579Z,102071.02
2019-02-21T23:28:42.592Z,102087.27
2019-02-21T23:31:12.316Z,102089.06
2019-02-21T23:33:46.529Z,102092.97
2019-02-21T23:36:16.350Z,102097.73
2019-02-21T23:38:46.766Z,102103.19
2019-02-21T23:41:16.786Z,102107.15
2019-02-21T23:43:47.265Z,102122.39
2019-02-21T23:46:17.191Z,102124.13
2019-02-21T23:48:47.152Z,102123.23
2019-02-21T23:51:16.797Z,102129.85
2019-02-21T23:53:46.492Z,102145.02
2019-02-21T23:56:16.264Z,102159.36
2019-02-21T23:58:45.873Z,102165.95
